createdAt,value
2018-09-27T00:04:37.363Z,99.90
2018-09-27T00:09:40.009Z,99.90
2018-09-27T00:14:42.623Z,99.90
2018-09-27T00:19:45.244Z,99.90
2018-09-27T00:24:47.843Z,99.90
2018-09-27T00:29:50.439Z,99.90
2018-09-27T00:34:53.116Z,99.90
2018-09-27T00:39:55.731Z,99.90
2018-09-27T00:44:58.340Z,99.90
2018-09-27T00:50:00.955Z,99.90
2018-09-27T00:55:03.478Z,99.90
2018-09-27T01:00:06.808Z,99.90
2018-09-27T01:05:09.546Z,99.90
2018-09-27T01:10:12.034Z,99.90
2018-09-27T01:15:14.511Z,99.90
2018-09-27T01:20:17.003Z,99.90
2018-09-27T01:25:19.502Z,99.90
2018-09-27T01:30:21.987Z,99.90
2018-09-27T01:35:24.476Z,99.90
2018-09-27T01:40:26.971Z,99.90
2018-09-27T01:45:29.465Z,99.90
2018-09-27T01:50:31.931Z,99.90
2018-09-27T01:55:34.395Z,99.90
2018-09-27T02:00:36.974Z,99.90
2018-09-27T02:05:39.454Z,99.90
2018-09-27T02:10:41.923Z,99.90
2018-09-27T02:15:44.455Z,99.90
2018-09-27T02:20:46.915Z,99.90
2018-09-27T02:25:49.459Z,99.90
2018-09-27T02:30:51.963Z,99.90
2018-09-27T02:35:54.420Z,99.90
2018-09-27T02:40:56.907Z,99.90
2018-09-27T02:45:59.389Z,99.90
2018-09-27T02:51:01.858Z,99.90
2018-09-27T02:56:04.326Z,99.90
2018-09-27T03:01:06.824Z,99.90
2018-09-27T03:06:09.330Z,99.90
2018-09-27T03:11:11.815Z,99.90
2018-09-27T03:16:14.344Z,99.90
2018-09-27T03:21:16.827Z,99.90
2018-09-27T03:26:19.310Z,99.90
2018-09-27T03:31:21.787Z,99.90
2018-09-27T03:36:24.275Z,99.90
2018-09-27T03:41:26.769Z,99.90
2018-09-27T03:46:29.259Z,99.90
2018-09-27T03:51:31.836Z,99.90
2018-09-27T03:56:34.317Z,99.90
2018-09-27T04:01:36.800Z,99.90
2018-09-27T04:06:39.250Z,99.90
2018-09-27T04:11:41.717Z,99.90
2018-09-27T04:16:44.252Z,99.90
2018-09-27T04:21:46.742Z,99.90
2018-09-27T04:26:49.469Z,99.90
2018-09-27T04:31:51.963Z,99.90
2018-09-27T04:36:54.523Z,99.90
2018-09-27T04:41:57.027Z,99.90
2018-09-27T04:46:59.558Z,99.90
2018-09-27T04:52:02.064Z,99.90
2018-09-27T04:57:04.575Z,99.90
2018-09-27T05:02:07.076Z,99.90
2018-09-27T05:07:09.580Z,99.90
2018-09-27T05:12:12.284Z,99.90
2018-09-27T05:17:14.808Z,99.90
2018-09-27T05:22:17.294Z,99.90
2018-09-27T05:27:19.835Z,99.90
2018-09-27T05:32:22.312Z,99.90
2018-09-27T05:37:24.805Z,99.90
2018-09-27T05:42:27.300Z,99.90
2018-09-27T05:47:29.787Z,99.90
2018-09-27T05:52:32.292Z,99.90
2018-09-27T05:57:34.840Z,99.90
2018-09-27T06:02:37.359Z,99.90
2018-09-27T06:07:39.860Z,99.90
2018-09-27T06:12:42.456Z,99.90
2018-09-27T06:17:44.972Z,99.90
2018-09-27T06:22:47.459Z,99.90
2018-09-27T06:27:49.947Z,99.90
2018-09-27T06:32:52.475Z,99.90
2018-09-27T06:37:54.984Z,99.90
2018-09-27T06:42:57.826Z,99.90
2018-09-27T06:48:00.307Z,99.90
2018-09-27T06:53:02.808Z,99.90
2018-09-27T06:58:05.361Z,99.90
2018-09-27T07:03:07.920Z,99.90
2018-09-27T07:08:11.134Z,99.90
2018-09-27T07:13:13.645Z,99.90
2018-09-27T07:18:16.216Z,99.90
2018-09-27T07:23:18.706Z,99.90
2018-09-27T07:28:21.257Z,99.90
2018-09-27T07:33:23.772Z,99.90
2018-09-27T07:38:26.307Z,99.90
2018-09-27T07:43:28.775Z,99.90
2018-09-27T07:48:31.548Z,99.90
2018-09-27T07:53:34.069Z,99.90
2018-09-27T07:58:37.160Z,99.90
2018-09-27T08:03:39.651Z,99.90
2018-09-27T08:08:42.309Z,99.90
2018-09-27T08:13:44.767Z,99.90
2018-09-27T08:18:47.263Z,99.90
2018-09-27T08:23:49.734Z,99.90
2018-09-27T08:28:52.211Z,94.30
2018-09-27T08:33:54.696Z,93.10
2018-09-27T08:38:57.190Z,92.20
2018-09-27T08:43:59.713Z,81.20
2018-09-27T08:49:02.240Z,79.70
2018-09-27T08:54:04.819Z,78.80
2018-09-27T08:59:07.364Z,70.40
2018-09-27T09:04:09.919Z,65.80
2018-09-27T09:09:13.148Z,60.40
2018-09-27T09:14:15.680Z,57.60
2018-09-27T09:19:18.211Z,55.80
2018-09-27T09:24:20.755Z,54.90
2018-09-27T09:29:23.346Z,54.20
2018-09-27T09:34:25.925Z,52.10
2018-09-27T09:39:28.511Z,51.10
2018-09-27T09:44:32.059Z,49.70
2018-09-27T09:49:34.593Z,46.50
2018-09-27T09:54:37.152Z,46.50
2018-09-27T09:59:39.710Z,45.80
2018-09-27T10:04:42.245Z,44.80
2018-09-27T10:09:44.794Z,44.10
2018-09-27T10:14:47.359Z,44.40
2018-09-27T10:19:49.895Z,40.10
2018-09-27T10:24:52.554Z,41.30
2018-09-27T10:29:55.084Z,41.20
2018-09-27T10:34:57.636Z,41.80
2018-09-27T10:40:00.172Z,42.90
2018-09-27T10:45:02.848Z,41.10
2018-09-27T10:50:05.594Z,40.10
2018-09-27T10:55:08.164Z,39.70
2018-09-27T11:00:15.307Z,39.60
2018-09-27T11:05:17.897Z,38.40
2018-09-27T11:10:20.424Z,33.60
2018-09-27T11:15:23.004Z,34.10
2018-09-27T11:20:27.334Z,33.40
2018-09-27T11:25:29.913Z,34.30
2018-09-27T11:30:34.653Z,31.60
2018-09-27T11:35:37.232Z,32.80
2018-09-27T11:40:40.577Z,32.60
2018-09-27T11:45:43.157Z,32.70
2018-09-27T11:50:46.376Z,31.60
2018-09-27T11:55:48.975Z,30.40
2018-09-27T12:00:51.536Z,29.50
2018-09-27T12:05:54.161Z,30.10
2018-09-27T12:10:56.707Z,29.00
2018-09-27T12:15:59.321Z,28.70
2018-09-27T12:21:01.912Z,28.50
2018-09-27T12:26:04.698Z,28.10
2018-09-27T12:31:07.768Z,27.30
2018-09-27T12:36:10.255Z,28.10
2018-09-27T12:41:13.200Z,26.90
2018-09-27T12:46:15.805Z,25.30
2018-09-27T12:51:18.739Z,24.40
2018-09-27T12:56:21.163Z,23.10
2018-09-27T13:01:23.851Z,22.80
2018-09-27T13:06:26.381Z,24.10
2018-09-27T13:11:28.920Z,24.20
2018-09-27T13:16:31.540Z,22.60
2018-09-27T13:21:34.111Z,22.30
2018-09-27T13:26:36.722Z,22.30
2018-09-27T13:31:39.249Z,23.30
2018-09-27T13:36:42.727Z,22.50
2018-09-27T13:41:45.280Z,22.30
2018-09-27T13:46:47.833Z,21.80
2018-09-27T13:51:50.370Z,21.60
2018-09-27T13:56:53.055Z,21.50
2018-09-27T14:01:55.551Z,20.60
2018-09-27T14:06:58.220Z,19.70
2018-09-27T14:12:00.824Z,19.40
2018-09-27T14:17:04.330Z,19.40
2018-09-27T14:22:06.834Z,19.10
2018-09-27T14:27:09.399Z,19.50
2018-09-27T14:32:11.966Z,18.70
2018-09-27T14:37:15.364Z,18.80
2018-09-27T14:42:18.627Z,17.50
2018-09-27T14:47:21.152Z,19.30
2018-09-27T14:52:23.735Z,18.30
2018-09-27T14:57:26.288Z,18.40
2018-09-27T15:02:28.908Z,17.90
2018-09-27T15:07:31.429Z,16.90
2018-09-27T15:12:34.312Z,16.60
2018-09-27T15:17:37.287Z,18.60
2018-09-27T15:22:39.895Z,20.50
2018-09-27T15:27:42.455Z,21.00
2018-09-27T15:32:45.004Z,19.80
2018-09-27T15:37:47.548Z,20.80
2018-09-27T15:42:50.172Z,20.20
2018-09-27T15:47:52.991Z,19.00
2018-09-27T15:52:57.552Z,19.70
2018-09-27T15:58:00.115Z,19.40
2018-09-27T16:03:02.680Z,20.40
2018-09-27T16:08:05.376Z,21.90
2018-09-27T16:13:07.936Z,19.20
2018-09-27T16:18:10.579Z,20.60
2018-09-27T16:23:16.006Z,23.70
2018-09-27T16:28:18.710Z,24.90
2018-09-27T16:33:21.357Z,26.90
2018-09-27T16:38:23.908Z,32.00
2018-09-27T16:43:26.645Z,40.10
2018-09-27T16:48:29.231Z,45.80
2018-09-27T16:53:32.792Z,49.40
2018-09-27T16:58:35.359Z,54.00
2018-09-27T17:03:37.940Z,56.90
2018-09-27T17:08:40.499Z,60.00
2018-09-27T17:13:43.065Z,63.50
2018-09-27T17:18:46.077Z,70.30
2018-09-27T17:23:48.698Z,78.50
2018-09-27T17:28:51.256Z,90.30
2018-09-27T17:33:53.860Z,96.10
2018-09-27T17:38:56.395Z,99.90
2018-09-27T17:43:58.969Z,99.90
2018-09-27T17:49:01.537Z,99.90
2018-09-27T17:54:04.095Z,99.90
2018-09-27T17:59:07.294Z,99.90
2018-09-27T18:04:09.847Z,99.90
2018-09-27T18:09:12.888Z,99.90
2018-09-27T18:14:15.488Z,99.90
2018-09-27T18:19:18.121Z,99.90
2018-09-27T18:24:20.765Z,99.90
2018-09-27T18:29:23.396Z,99.90
2018-09-27T18:34:26.003Z,99.90
2018-09-27T18:39:28.736Z,99.90
2018-09-27T18:44:33.539Z,99.90
2018-09-27T18:49:36.201Z,99.90
2018-09-27T18:54:38.856Z,99.90
2018-09-27T18:59:43.580Z,99.90
2018-09-27T19:04:46.276Z,99.90
2018-09-27T19:09:48.848Z,99.90
2018-09-27T19:14:51.456Z,99.90
2018-09-27T19:19:54.076Z,99.90
2018-09-27T19:24:56.658Z,99.90
2018-09-27T19:29:59.226Z,99.90
2018-09-27T19:35:01.873Z,99.90
2018-09-27T19:40:04.467Z,99.90
2018-09-27T19:45:07.069Z,99.90
2018-09-27T19:50:09.641Z,99.90
2018-09-27T19:55:12.220Z,99.90
2018-09-27T20:00:14.852Z,99.90
2018-09-27T20:05:17.441Z,99.90
2018-09-27T20:10:20.093Z,99.90
2018-09-27T20:15:22.799Z,99.90
2018-09-27T20:20:25.392Z,99.90
2018-09-27T20:25:27.968Z,99.90
2018-09-27T20:30:30.584Z,99.90
2018-09-27T20:35:33.185Z,99.90
2018-09-27T20:40:36.065Z,99.90
2018-09-27T20:45:38.628Z,99.90
2018-09-27T20:50:41.190Z,99.90
2018-09-27T20:55:43.769Z,99.90
2018-09-27T21:00:46.967Z,99.90
2018-09-27T21:05:49.553Z,99.90
2018-09-27T21:10:52.148Z,99.90
2018-09-27T21:15:54.676Z,99.90
2018-09-27T21:20:57.236Z,99.90
2018-09-27T21:25:59.763Z,99.90
2018-09-27T21:31:02.329Z,99.90
2018-09-27T21:36:04.952Z,99.90
2018-09-27T21:41:07.452Z,99.90
2018-09-27T21:46:09.968Z,99.90
2018-09-27T21:51:12.452Z,99.90
2018-09-27T21:56:14.950Z,99.90
2018-09-27T22:01:17.574Z,99.90
2018-09-27T22:06:20.212Z,99.90
2018-09-27T22:11:22.792Z,99.90
2018-09-27T22:16:25.285Z,99.90
2018-09-27T22:21:27.771Z,99.90
2018-09-27T22:26:30.302Z,99.90
2018-09-27T22:31:33.618Z,99.90
2018-09-27T22:36:36.132Z,99.90
2018-09-27T22:41:38.628Z,99.90
2018-09-27T22:46:41.112Z,99.90
2018-09-27T22:51:43.626Z,99.90
2018-09-27T22:56:46.134Z,99.90
2018-09-27T23:01:48.667Z,99.90
2018-09-27T23:06:51.168Z,99.90
2018-09-27T23:11:53.654Z,99.90
2018-09-27T23:16:56.147Z,99.90
2018-09-27T23:21:58.615Z,99.90
2018-09-27T23:27:01.131Z,99.90
2018-09-27T23:32:03.659Z,99.90
2018-09-27T23:37:06.461Z,99.90
2018-09-27T23:42:08.944Z,99.90
2018-09-27T23:47:11.475Z,99.90
2018-09-27T23:52:13.990Z,99.90
2018-09-27T23:57:16.530Z,99.90
